sensor_id;sensor_type;location;lat;lon;timestamp;pressure;altitude;pressure_sealevel;temperature;humidity
6435;BME280;3250;42.694;23.278;2023-11-21T00:01:59;94667.16;;;5.34;87.46
6435;BME280;3250;42.694;23.278;2023-11-21T00:04:24;94666.16;;;5.35;87.54
6435;BME280;3250;42.694;23.278;2023-11-21T00:06:50;94663.38;;;5.36;87.48
6435;BME280;3250;42.694;23.278;2023-11-21T00:09:16;94669.84;;;5.40;87.57
6435;BME280;3250;42.694;23.278;2023-11-21T00:11:43;94649.63;;;5.27;87.21
6435;BME280;3250;42.694;23.278;2023-11-21T00:14:10;94674.41;;;5.38;87.56
6435;BME280;3250;42.694;23.278;2023-11-21T00:16:35;94675.06;;;5.40;88.03
6435;BME280;3250;42.694;23.278;2023-11-21T00:19:01;94668.28;;;5.46;88.04
6435;BME280;3250;42.694;23.278;2023-11-21T00:21:26;94662.25;;;5.45;87.10
6435;BME280;3250;42.694;23.278;2023-11-21T00:23:52;94655.56;;;5.36;86.60
6435;BME280;3250;42.694;23.278;2023-11-21T00:26:17;94673.88;;;5.43;87.03
6435;BME280;3250;42.694;23.278;2023-11-21T00:28:43;94667.69;;;5.44;86.94
6435;BME280;3250;42.694;23.278;2023-11-21T00:31:08;94658.03;;;5.44;87.29
6435;BME280;3250;42.694;23.278;2023-11-21T00:33:33;94666.06;;;5.43;87.55
6435;BME280;3250;42.694;23.278;2023-11-21T00:35:59;94663.25;;;5.44;88.08
6435;BME280;3250;42.694;23.278;2023-11-21T00:38:26;94664.44;;;5.42;87.81
6435;BME280;3250;42.694;23.278;2023-11-21T00:40:52;94638.56;;;5.25;88.03
6435;BME280;3250;42.694;23.278;2023-11-21T00:43:23;94658.50;;;5.33;87.96
6435;BME280;3250;42.694;23.278;2023-11-21T00:45:49;94661.47;;;5.30;88.20
6435;BME280;3250;42.694;23.278;2023-11-21T00:48:15;94667.97;;;5.34;88.29
6435;BME280;3250;42.694;23.278;2023-11-21T00:50:40;94668.78;;;5.35;88.09
6435;BME280;3250;42.694;23.278;2023-11-21T00:53:06;94666.69;;;5.30;88.05
6435;BME280;3250;42.694;23.278;2023-11-21T00:55:33;94646.09;;;5.20;88.05
6435;BME280;3250;42.694;23.278;2023-11-21T00:57:58;94653.03;;;5.28;88.32
6435;BME280;3250;42.694;23.278;2023-11-21T01:00:25;94647.63;;;5.29;88.45
6435;BME280;3250;42.694;23.278;2023-11-21T01:02:50;94651.84;;;5.30;87.92
6435;BME280;3250;42.694;23.278;2023-11-21T01:05:16;94650.06;;;5.31;87.71
6435;BME280;3250;42.694;23.278;2023-11-21T01:07:41;94645.56;;;5.25;87.27
6435;BME280;3250;42.694;23.278;2023-11-21T01:10:07;94634.50;;;5.23;87.06
6435;BME280;3250;42.694;23.278;2023-11-21T01:12:37;94643.50;;;5.20;86.47
6435;BME280;3250;42.694;23.278;2023-11-21T01:15:06;94644.88;;;5.16;86.77
6435;BME280;3250;42.694;23.278;2023-11-21T01:17:37;94641.81;;;5.13;86.96
6435;BME280;3250;42.694;23.278;2023-11-21T01:20:04;94642.63;;;5.13;87.09
6435;BME280;3250;42.694;23.278;2023-11-21T01:22:36;94654.03;;;5.12;87.34
6435;BME280;3250;42.694;23.278;2023-11-21T01:25:02;94649.00;;;5.11;86.96
6435;BME280;3250;42.694;23.278;2023-11-21T01:27:29;94648.00;;;5.12;86.85
6435;BME280;3250;42.694;23.278;2023-11-21T01:29:55;94638.78;;;5.09;86.67
6435;BME280;3250;42.694;23.278;2023-11-21T01:32:20;94629.44;;;5.00;86.28
6435;BME280;3250;42.694;23.278;2023-11-21T01:34:46;94639.66;;;5.02;86.38
6435;BME280;3250;42.694;23.278;2023-11-21T01:37:11;94652.28;;;4.98;86.42
6435;BME280;3250;42.694;23.278;2023-11-21T01:39:37;94652.44;;;4.97;86.57
6435;BME280;3250;42.694;23.278;2023-11-21T01:42:04;94653.59;;;4.94;86.62
6435;BME280;3250;42.694;23.278;2023-11-21T01:44:30;94654.59;;;4.93;86.57
6435;BME280;3250;42.694;23.278;2023-11-21T01:46:56;94644.53;;;4.90;86.92
6435;BME280;3250;42.694;23.278;2023-11-21T01:49:23;94633.72;;;4.93;86.90
6435;BME280;3250;42.694;23.278;2023-11-21T01:51:49;94636.00;;;4.96;86.69
6435;BME280;3250;42.694;23.278;2023-11-21T01:54:17;94632.56;;;4.96;86.46
6435;BME280;3250;42.694;23.278;2023-11-21T01:56:46;94636.81;;;4.97;86.37
6435;BME280;3250;42.694;23.278;2023-11-21T01:59:14;94641.75;;;4.91;86.04
6435;BME280;3250;42.694;23.278;2023-11-21T02:01:41;94649.13;;;4.88;86.17
6435;BME280;3250;42.694;23.278;2023-11-21T02:04:07;94650.13;;;4.87;86.22
6435;BME280;3250;42.694;23.278;2023-11-21T02:06:33;94626.50;;;4.74;86.43
6435;BME280;3250;42.694;23.278;2023-11-21T02:08:59;94642.38;;;4.79;86.70
6435;BME280;3250;42.694;23.278;2023-11-21T02:11:25;94644.19;;;4.78;86.61
6435;BME280;3250;42.694;23.278;2023-11-21T02:13:52;94637.09;;;4.72;86.60
6435;BME280;3250;42.694;23.278;2023-11-21T02:16:19;94637.53;;;4.76;86.48
6435;BME280;3250;42.694;23.278;2023-11-21T02:18:47;94628.63;;;4.70;86.54
6435;BME280;3250;42.694;23.278;2023-11-21T02:21:14;94645.53;;;4.74;86.64
6435;BME280;3250;42.694;23.278;2023-11-21T02:23:39;94624.78;;;4.66;86.64
6435;BME280;3250;42.694;23.278;2023-11-21T02:26:09;94636.63;;;4.69;86.70
6435;BME280;3250;42.694;23.278;2023-11-21T02:28:35;94635.47;;;4.71;87.16
6435;BME280;3250;42.694;23.278;2023-11-21T02:31:00;94629.63;;;4.69;87.27
6435;BME280;3250;42.694;23.278;2023-11-21T02:33:28;94618.47;;;4.61;87.45
6435;BME280;3250;42.694;23.278;2023-11-21T02:35:53;94631.25;;;4.70;87.24
6435;BME280;3250;42.694;23.278;2023-11-21T02:38:21;94632.22;;;4.69;86.94
6435;BME280;3250;42.694;23.278;2023-11-21T02:40:46;94634.56;;;4.64;86.87
6435;BME280;3250;42.694;23.278;2023-11-21T02:43:12;94634.56;;;4.64;86.69
6435;BME280;3250;42.694;23.278;2023-11-21T02:45:37;94625.06;;;4.57;87.11
6435;BME280;3250;42.694;23.278;2023-11-21T02:48:03;94633.69;;;4.57;87.19
6435;BME280;3250;42.694;23.278;2023-11-21T02:50:29;94627.66;;;4.57;86.85
6435;BME280;3250;42.694;23.278;2023-11-21T02:52:55;94637.28;;;4.56;86.74
6435;BME280;3250;42.694;23.278;2023-11-21T02:55:22;94633.69;;;4.57;86.90
6435;BME280;3250;42.694;23.278;2023-11-21T02:57:50;94625.66;;;4.59;86.92
6435;BME280;3250;42.694;23.278;2023-11-21T03:00:16;94631.69;;;4.59;86.71
6435;BME280;3250;42.694;23.278;2023-11-21T03:02:42;94620.19;;;4.53;86.27
6435;BME280;3250;42.694;23.278;2023-11-21T03:05:08;94604.56;;;4.39;86.35
6435;BME280;3250;42.694;23.278;2023-11-21T03:07:34;94626.28;;;4.46;86.51
6435;BME280;3250;42.694;23.278;2023-11-21T03:10:00;94621.09;;;4.46;86.66
6435;BME280;3250;42.694;23.278;2023-11-21T03:12:26;94627.63;;;4.42;86.86
6435;BME280;3250;42.694;23.278;2023-11-21T03:14:51;94625.84;;;4.42;86.72
6435;BME280;3250;42.694;23.278;2023-11-21T03:17:17;94627.63;;;4.42;86.64
6435;BME280;3250;42.694;23.278;2023-11-21T03:19:42;94629.25;;;4.43;86.71
6435;BME280;3250;42.694;23.278;2023-11-21T03:22:07;94632.50;;;4.45;86.56
6435;BME280;3250;42.694;23.278;2023-11-21T03:24:34;94637.34;;;4.48;86.82
6435;BME280;3250;42.694;23.278;2023-11-21T03:26:59;94633.13;;;4.47;86.47
6435;BME280;3250;42.694;23.278;2023-11-21T03:29:25;94636.72;;;4.46;86.64
6435;BME280;3250;42.694;23.278;2023-11-21T03:31:51;94635.09;;;4.45;86.83
6435;BME280;3250;42.694;23.278;2023-11-21T03:34:24;94623.59;;;4.39;86.74
6435;BME280;3250;42.694;23.278;2023-11-21T03:36:50;94635.91;;;4.45;87.34
6435;BME280;3250;42.694;23.278;2023-11-21T03:39:16;94632.97;;;4.48;87.72
6435;BME280;3250;42.694;23.278;2023-11-21T03:41:41;94631.59;;;4.52;87.53
6435;BME280;3250;42.694;23.278;2023-11-21T03:44:07;94622.78;;;4.53;87.67
6435;BME280;3250;42.694;23.278;2023-11-21T03:46:32;94605.53;;;4.52;87.46
6435;BME280;3250;42.694;23.278;2023-11-21T03:48:58;94613.34;;;4.67;87.64
6435;BME280;3250;42.694;23.278;2023-11-21T03:51:23;94592.69;;;4.51;86.58
6435;BME280;3250;42.694;23.278;2023-11-21T03:53:48;94614.16;;;4.68;87.04
6435;BME280;3250;42.694;23.278;2023-11-21T03:56:14;94614.88;;;4.76;88.24
6435;BME280;3250;42.694;23.278;2023-11-21T03:58:40;94599.97;;;4.70;86.46
6435;BME280;3250;42.694;23.278;2023-11-21T04:01:05;94622.69;;;4.76;86.37
6435;BME280;3250;42.694;23.278;2023-11-21T04:03:31;94601.84;;;4.76;86.46
6435;BME280;3250;42.694;23.278;2023-11-21T04:05:56;94585.22;;;4.63;86.34
6435;BME280;3250;42.694;23.278;2023-11-21T04:08:22;94605.34;;;4.69;86.31
6435;BME280;3250;42.694;23.278;2023-11-21T04:10:47;94602.50;;;4.64;86.69
6435;BME280;3250;42.694;23.278;2023-11-21T04:13:13;94605.44;;;4.61;87.07
6435;BME280;3250;42.694;23.278;2023-11-21T04:15:39;94604.63;;;4.60;86.86
6435;BME280;3250;42.694;23.278;2023-11-21T04:18:04;94595.09;;;4.52;87.00
6435;BME280;3250;42.694;23.278;2023-11-21T04:20:30;94590.63;;;4.46;87.01
6435;BME280;3250;42.694;23.278;2023-11-21T04:22:55;94607.63;;;4.57;87.18
6435;BME280;3250;42.694;23.278;2023-11-21T04:25:21;94605.72;;;4.51;87.14
6435;BME280;3250;42.694;23.278;2023-11-21T04:27:48;94610.41;;;4.55;87.36
6435;BME280;3250;42.694;23.278;2023-11-21T04:30:14;94601.94;;;4.53;87.03
6435;BME280;3250;42.694;23.278;2023-11-21T04:32:40;94611.22;;;4.56;87.63
6435;BME280;3250;42.694;23.278;2023-11-21T04:35:06;94591.06;;;4.50;87.64
6435;BME280;3250;42.694;23.278;2023-11-21T04:37:31;94613.81;;;4.56;87.41
6435;BME280;3250;42.694;23.278;2023-11-21T04:39:57;94611.31;;;4.48;87.75
6435;BME280;3250;42.694;23.278;2023-11-21T04:42:22;94619.13;;;4.48;88.57
6435;BME280;3250;42.694;23.278;2023-11-21T04:44:48;94616.50;;;4.48;88.32
6435;BME280;3250;42.694;23.278;2023-11-21T04:47:14;94610.03;;;4.44;88.19
6435;BME280;3250;42.694;23.278;2023-11-21T04:49:42;94621.56;;;4.49;87.77
6435;BME280;3250;42.694;23.278;2023-11-21T04:52:08;94621.44;;;4.43;88.05
6435;BME280;3250;42.694;23.278;2023-11-21T04:54:35;94626.03;;;4.41;88.68
6435;BME280;3250;42.694;23.278;2023-11-21T04:57:01;94612.00;;;4.42;88.31
6435;BME280;3250;42.694;23.278;2023-11-21T04:59:26;94600.69;;;4.35;88.22
6435;BME280;3250;42.694;23.278;2023-11-21T05:01:53;94620.38;;;4.37;88.13
6435;BME280;3250;42.694;23.278;2023-11-21T05:04:19;94623.44;;;4.41;88.80
6435;BME280;3250;42.694;23.278;2023-11-21T05:06:44;94623.44;;;4.41;88.77
6435;BME280;3250;42.694;23.278;2023-11-21T05:09:11;94615.25;;;4.44;88.86
6435;BME280;3250;42.694;23.278;2023-11-21T05:11:37;94601.69;;;4.48;89.16
6435;BME280;3250;42.694;23.278;2023-11-21T05:14:04;94612.72;;;4.50;88.48
6435;BME280;3250;42.694;23.278;2023-11-21T05:16:30;94614.50;;;4.50;88.37
6435;BME280;3250;42.694;23.278;2023-11-21T05:18:56;94606.44;;;4.45;88.71
6435;BME280;3250;42.694;23.278;2023-11-21T05:21:26;94576.78;;;4.31;89.39
6435;BME280;3250;42.694;23.278;2023-11-21T05:23:52;94603.09;;;4.51;89.66
6435;BME280;3250;42.694;23.278;2023-11-21T05:26:17;94609.25;;;4.58;89.72
6435;BME280;3250;42.694;23.278;2023-11-21T05:28:43;94618.13;;;4.64;89.54
6435;BME280;3250;42.694;23.278;2023-11-21T05:31:08;94598.53;;;4.53;89.22
6435;BME280;3250;42.694;23.278;2023-11-21T05:33:34;94604.81;;;4.59;88.78
6435;BME280;3250;42.694;23.278;2023-11-21T05:35:59;94621.00;;;4.69;88.32
6435;BME280;3250;42.694;23.278;2023-11-21T05:38:25;94617.56;;;4.68;88.42
6435;BME280;3250;42.694;23.278;2023-11-21T05:40:51;94620.19;;;4.68;88.61
6435;BME280;3250;42.694;23.278;2023-11-21T05:43:16;94624.22;;;4.71;88.94
6435;BME280;3250;42.694;23.278;2023-11-21T05:45:41;94620.47;;;4.73;88.47
6435;BME280;3250;42.694;23.278;2023-11-21T05:48:07;94623.06;;;4.73;89.24
6435;BME280;3250;42.694;23.278;2023-11-21T05:50:33;94604.63;;;4.60;88.68
6435;BME280;3250;42.694;23.278;2023-11-21T05:52:58;94618.75;;;4.80;88.77
6435;BME280;3250;42.694;23.278;2023-11-21T05:55:25;94608.31;;;4.80;88.40
6435;BME280;3250;42.694;23.278;2023-11-21T05:57:51;94616.38;;;4.85;88.56
6435;BME280;3250;42.694;23.278;2023-11-21T06:00:16;94581.88;;;4.69;88.59
6435;BME280;3250;42.694;23.278;2023-11-21T06:02:53;94616.09;;;4.95;88.54
6435;BME280;3250;42.694;23.278;2023-11-21T06:05:22;94620.00;;;4.99;88.75
6435;BME280;3250;42.694;23.278;2023-11-21T06:07:49;94619.72;;;5.09;88.34
6435;BME280;3250;42.694;23.278;2023-11-21T06:10:14;94630.75;;;5.11;87.51
6435;BME280;3250;42.694;23.278;2023-11-21T06:12:40;94628.06;;;5.19;87.98
6435;BME280;3250;42.694;23.278;2023-11-21T06:15:09;94612.56;;;5.17;87.71
6435;BME280;3250;42.694;23.278;2023-11-21T06:17:35;94634.41;;;5.31;87.86
6435;BME280;3250;42.694;23.278;2023-11-21T06:20:06;94634.28;;;5.39;87.63
6435;BME280;3250;42.694;23.278;2023-11-21T06:22:38;94624.22;;;5.36;87.12
6435;BME280;3250;42.694;23.278;2023-11-21T06:25:05;94603.91;;;5.31;87.33
6435;BME280;3250;42.694;23.278;2023-11-21T06:27:37;94634.16;;;5.47;86.99
6435;BME280;3250;42.694;23.278;2023-11-21T06:30:03;94641.19;;;5.47;86.75
6435;BME280;3250;42.694;23.278;2023-11-21T06:32:29;94646.13;;;5.56;87.05
6435;BME280;3250;42.694;23.278;2023-11-21T06:34:58;94639.34;;;5.62;86.41
6435;BME280;3250;42.694;23.278;2023-11-21T06:37:29;94644.53;;;5.77;86.60
6435;BME280;3250;42.694;23.278;2023-11-21T06:39:55;94651.31;;;5.92;86.58
6435;BME280;3250;42.694;23.278;2023-11-21T06:42:22;94658.66;;;6.03;85.59
6435;BME280;3250;42.694;23.278;2023-11-21T06:44:48;94648.50;;;6.15;85.13
6435;BME280;3250;42.694;23.278;2023-11-21T06:47:14;94668.34;;;6.31;84.41
6435;BME280;3250;42.694;23.278;2023-11-21T06:49:41;94667.53;;;6.58;84.12
6435;BME280;3250;42.694;23.278;2023-11-21T06:52:06;94661.66;;;6.84;83.08
6435;BME280;3250;42.694;23.278;2023-11-21T06:54:32;94662.78;;;7.09;81.69
6435;BME280;3250;42.694;23.278;2023-11-21T06:56:58;94661.88;;;7.30;80.40
6435;BME280;3250;42.694;23.278;2023-11-21T06:59:24;94664.75;;;7.42;79.44
6435;BME280;3250;42.694;23.278;2023-11-21T07:01:50;94667.03;;;7.58;79.02
6435;BME280;3250;42.694;23.278;2023-11-21T07:04:15;94665.59;;;7.55;78.54
6435;BME280;3250;42.694;23.278;2023-11-21T07:06:41;94657.72;;;7.49;78.80
6435;BME280;3250;42.694;23.278;2023-11-21T07:09:06;94661.34;;;7.41;78.21
6435;BME280;3250;42.694;23.278;2023-11-21T07:11:34;94642.38;;;7.33;78.86
6435;BME280;3250;42.694;23.278;2023-11-21T07:13:59;94647.63;;;7.33;79.18
6435;BME280;3250;42.694;23.278;2023-11-21T07:16:27;94648.00;;;7.30;79.20
6435;BME280;3250;42.694;23.278;2023-11-21T07:18:55;94646.78;;;7.26;79.17
6435;BME280;3250;42.694;23.278;2023-11-21T07:21:21;94648.16;;;7.22;79.59
6435;BME280;3250;42.694;23.278;2023-11-21T07:23:46;94641.13;;;7.22;80.33
6435;BME280;3250;42.694;23.278;2023-11-21T07:26:12;94639.81;;;6.98;80.76
6435;BME280;3250;42.694;23.278;2023-11-21T07:28:37;94653.41;;;7.22;81.54
6435;BME280;3250;42.694;23.278;2023-11-21T07:31:03;94658.91;;;7.40;81.52
6435;BME280;3250;42.694;23.278;2023-11-21T07:33:28;94655.75;;;7.51;80.15
6435;BME280;3250;42.694;23.278;2023-11-21T07:35:54;94657.38;;;7.65;80.52
6435;BME280;3250;42.694;23.278;2023-11-21T07:38:19;94651.94;;;7.73;78.95
6435;BME280;3250;42.694;23.278;2023-11-21T07:40:45;94650.94;;;7.74;78.75
6435;BME280;3250;42.694;23.278;2023-11-21T07:43:10;94647.97;;;7.84;79.63
6435;BME280;3250;42.694;23.278;2023-11-21T07:45:36;94637.06;;;7.80;78.89
6435;BME280;3250;42.694;23.278;2023-11-21T07:48:01;94652.81;;;8.07;79.26
6435;BME280;3250;42.694;23.278;2023-11-21T07:50:29;94643.13;;;8.14;78.02
6435;BME280;3250;42.694;23.278;2023-11-21T07:52:55;94647.78;;;8.12;77.50
6435;BME280;3250;42.694;23.278;2023-11-21T07:55:21;94643.34;;;7.92;76.93
6435;BME280;3250;42.694;23.278;2023-11-21T07:57:46;94640.50;;;8.01;77.97
6435;BME280;3250;42.694;23.278;2023-11-21T08:00:12;94643.94;;;8.08;77.91
6435;BME280;3250;42.694;23.278;2023-11-21T08:02:40;94632.69;;;8.20;77.61
6435;BME280;3250;42.694;23.278;2023-11-21T08:05:11;94632.88;;;8.12;76.77
6435;BME280;3250;42.694;23.278;2023-11-21T08:07:37;94627.41;;;8.14;77.94
6435;BME280;3250;42.694;23.278;2023-11-21T08:10:03;94632.88;;;8.19;78.50
6435;BME280;3250;42.694;23.278;2023-11-21T08:12:30;94629.25;;;8.20;78.89
6435;BME280;3250;42.694;23.278;2023-11-21T08:14:55;94629.47;;;8.38;78.15
6435;BME280;3250;42.694;23.278;2023-11-21T08:17:21;94634.09;;;8.62;77.86
6435;BME280;3250;42.694;23.278;2023-11-21T08:19:47;94640.91;;;8.77;77.56
6435;BME280;3250;42.694;23.278;2023-11-21T08:22:15;94635.84;;;8.95;77.13
6435;BME280;3250;42.694;23.278;2023-11-21T08:24:43;94627.75;;;9.03;76.68
6435;BME280;3250;42.694;23.278;2023-11-21T08:27:08;94614.38;;;9.11;76.05
6435;BME280;3250;42.694;23.278;2023-11-21T08:29:34;94631.34;;;9.08;76.12
6435;BME280;3250;42.694;23.278;2023-11-21T08:32:02;94623.59;;;9.33;76.69
6435;BME280;3250;42.694;23.278;2023-11-21T08:34:27;94615.28;;;9.36;74.83
6435;BME280;3250;42.694;23.278;2023-11-21T08:36:54;94627.06;;;9.65;74.06
6435;BME280;3250;42.694;23.278;2023-11-21T08:39:20;94630.78;;;9.89;73.15
6435;BME280;3250;42.694;23.278;2023-11-21T08:41:49;94634.78;;;9.60;71.83
6435;BME280;3250;42.694;23.278;2023-11-21T08:44:16;94619.81;;;9.61;71.93
6435;BME280;3250;42.694;23.278;2023-11-21T08:46:43;94610.53;;;9.58;72.45
6435;BME280;3250;42.694;23.278;2023-11-21T08:49:11;94613.03;;;9.78;72.50
6435;BME280;3250;42.694;23.278;2023-11-21T08:51:37;94610.38;;;9.84;71.90
6435;BME280;3250;42.694;23.278;2023-11-21T08:54:03;94612.41;;;10.14;73.28
6435;BME280;3250;42.694;23.278;2023-11-21T08:56:33;94611.69;;;10.32;72.58
6435;BME280;3250;42.694;23.278;2023-11-21T08:58:58;94600.78;;;10.53;71.32
6435;BME280;3250;42.694;23.278;2023-11-21T09:01:25;94590.47;;;10.51;69.91
6435;BME280;3250;42.694;23.278;2023-11-21T09:03:51;94597.97;;;10.48;69.73
6435;BME280;3250;42.694;23.278;2023-11-21T09:06:16;94587.25;;;10.49;70.55
6435;BME280;3250;42.694;23.278;2023-11-21T09:08:42;94578.81;;;10.41;70.63
6435;BME280;3250;42.694;23.278;2023-11-21T09:11:08;94568.84;;;10.25;70.30
6435;BME280;3250;42.694;23.278;2023-11-21T09:13:34;94558.97;;;10.20;70.25
6435;BME280;3250;42.694;23.278;2023-11-21T09:15:59;94565.03;;;10.20;70.95
6435;BME280;3250;42.694;23.278;2023-11-21T09:18:25;94542.63;;;10.11;70.18
6435;BME280;3250;42.694;23.278;2023-11-21T09:20:51;94556.94;;;10.15;69.34
6435;BME280;3250;42.694;23.278;2023-11-21T09:23:16;94543.28;;;10.07;70.75
6435;BME280;3250;42.694;23.278;2023-11-21T09:25:41;94543.56;;;10.24;70.02
6435;BME280;3250;42.694;23.278;2023-11-21T09:28:11;94524.28;;;10.30;70.75
6435;BME280;3250;42.694;23.278;2023-11-21T09:30:37;94529.19;;;10.26;69.51
6435;BME280;3250;42.694;23.278;2023-11-21T09:33:03;94518.97;;;10.11;70.38
6435;BME280;3250;42.694;23.278;2023-11-21T09:35:33;94522.56;;;10.17;71.87
6435;BME280;3250;42.694;23.278;2023-11-21T09:37:59;94492.88;;;10.10;70.02
6435;BME280;3250;42.694;23.278;2023-11-21T09:40:26;94503.69;;;10.45;71.11
6435;BME280;3250;42.694;23.278;2023-11-21T09:42:56;94510.00;;;10.62;69.32
6435;BME280;3250;42.694;23.278;2023-11-21T09:45:29;94494.94;;;10.69;68.30
6435;BME280;3250;42.694;23.278;2023-11-21T09:47:59;94491.88;;;10.72;68.42
6435;BME280;3250;42.694;23.278;2023-11-21T09:50:25;94481.47;;;10.59;67.40
6435;BME280;3250;42.694;23.278;2023-11-21T09:55:26;94466.66;;;10.46;68.39
6435;BME280;3250;42.694;23.278;2023-11-21T09:57:53;94445.88;;;10.38;68.67
6435;BME280;3250;42.694;23.278;2023-11-21T10:00:19;94466.41;;;10.66;69.09
6435;BME280;3250;42.694;23.278;2023-11-21T10:02:49;94458.84;;;10.88;68.73
6435;BME280;3250;42.694;23.278;2023-11-21T10:05:15;94459.78;;;10.93;66.94
6435;BME280;3250;42.694;23.278;2023-11-21T10:07:42;94458.03;;;11.06;66.76
6435;BME280;3250;42.694;23.278;2023-11-21T10:10:10;94449.22;;;11.12;66.93
6435;BME280;3250;42.694;23.278;2023-11-21T10:12:36;94443.75;;;11.25;66.96
6435;BME280;3250;42.694;23.278;2023-11-21T10:15:07;94451.00;;;11.29;66.00
6435;BME280;3250;42.694;23.278;2023-11-21T10:17:35;94433.78;;;11.27;66.36
6435;BME280;3250;42.694;23.278;2023-11-21T10:20:08;94430.06;;;11.46;66.68
6435;BME280;3250;42.694;23.278;2023-11-21T10:22:43;94430.56;;;11.66;66.23
6435;BME280;3250;42.694;23.278;2023-11-21T10:25:09;94435.94;;;11.71;64.88
6435;BME280;3250;42.694;23.278;2023-11-21T10:27:36;94439.06;;;11.80;65.63
6435;BME280;3250;42.694;23.278;2023-11-21T10:30:05;94429.31;;;12.04;67.99
6435;BME280;3250;42.694;23.278;2023-11-21T16:16:30;94211.78;;;10.73;82.53
6435;BME280;3250;42.694;23.278;2023-11-21T16:18:55;94225.28;;;10.53;82.99
6435;BME280;3250;42.694;23.278;2023-11-21T16:21:20;94192.16;;;10.34;83.64
6435;BME280;3250;42.694;23.278;2023-11-21T16:23:46;94215.19;;;10.20;84.27
6435;BME280;3250;42.694;23.278;2023-11-21T16:26:11;94199.44;;;10.20;84.83
6435;BME280;3250;42.694;23.278;2023-11-21T16:28:37;94187.78;;;9.98;85.28
6435;BME280;3250;42.694;23.278;2023-11-21T16:31:03;94191.13;;;10.05;85.69
6435;BME280;3250;42.694;23.278;2023-11-21T16:33:28;94211.47;;;9.80;86.71
6435;BME280;3250;42.694;23.278;2023-11-21T16:35:54;94177.50;;;9.67;87.21
6435;BME280;3250;42.694;23.278;2023-11-21T16:38:20;94198.53;;;9.67;87.68
6435;BME280;3250;42.694;23.278;2023-11-21T16:40:46;94176.84;;;9.53;88.03
6435;BME280;3250;42.694;23.278;2023-11-21T16:43:12;94170.97;;;9.39;88.26
6435;BME280;3250;42.694;23.278;2023-11-21T16:45:37;94189.03;;;9.48;88.21
6435;BME280;3250;42.694;23.278;2023-11-21T16:48:03;94170.25;;;9.32;88.45
6435;BME280;3250;42.694;23.278;2023-11-21T16:50:29;94184.09;;;9.39;88.94
6435;BME280;3250;42.694;23.278;2023-11-21T16:52:54;94181.47;;;9.39;89.06
6435;BME280;3250;42.694;23.278;2023-11-21T16:55:19;94182.19;;;9.28;89.22
6435;BME280;3250;42.694;23.278;2023-11-21T16:57:45;94168.50;;;9.08;89.61
6435;BME280;3250;42.694;23.278;2023-11-21T17:00:11;94183.66;;;9.06;90.38
6435;BME280;3250;42.694;23.278;2023-11-21T17:02:38;94173.16;;;9.06;90.91
6435;BME280;3250;42.694;23.278;2023-11-21T17:05:05;94185.25;;;9.07;91.09
6435;BME280;3250;42.694;23.278;2023-11-21T17:07:31;94183.44;;;9.07;91.40
6435;BME280;3250;42.694;23.278;2023-11-21T17:09:58;94169.81;;;8.99;91.05
6435;BME280;3250;42.694;23.278;2023-11-21T17:12:24;94175.88;;;8.75;91.36
6435;BME280;3250;42.694;23.278;2023-11-21T17:14:51;94187.13;;;8.82;92.34
6435;BME280;3250;42.694;23.278;2023-11-21T17:17:16;94160.13;;;8.75;92.49
6435;BME280;3250;42.694;23.278;2023-11-21T17:19:42;94168.88;;;8.68;92.45
6435;BME280;3250;42.694;23.278;2023-11-21T17:22:08;94162.47;;;8.64;92.82
6435;BME280;3250;42.694;23.278;2023-11-21T17:24:34;94178.06;;;8.78;92.71
6435;BME280;3250;42.694;23.278;2023-11-21T17:27:02;94165.53;;;8.80;92.50
6435;BME280;3250;42.694;23.278;2023-11-21T17:29:28;94181.13;;;8.50;93.30
6435;BME280;3250;42.694;23.278;2023-11-21T17:31:53;94151.28;;;8.51;93.34
6435;BME280;3250;42.694;23.278;2023-11-21T17:34:19;94165.66;;;8.42;93.91
6435;BME280;3250;42.694;23.278;2023-11-21T17:36:45;94161.22;;;8.42;94.41
6435;BME280;3250;42.694;23.278;2023-11-21T17:39:11;94172.63;;;8.54;94.63
6435;BME280;3250;42.694;23.278;2023-11-21T17:41:37;94167.53;;;8.59;94.24
6435;BME280;3250;42.694;23.278;2023-11-21T17:44:03;94172.50;;;8.67;93.65
6435;BME280;3250;42.694;23.278;2023-11-21T17:46:28;94152.59;;;8.60;92.88
6435;BME280;3250;42.694;23.278;2023-11-21T17:48:54;94164.91;;;8.59;93.45
6435;BME280;3250;42.694;23.278;2023-11-21T17:51:20;94178.97;;;8.65;92.99
6435;BME280;3250;42.694;23.278;2023-11-21T17:53:45;94177.41;;;8.64;92.99
6435;BME280;3250;42.694;23.278;2023-11-21T17:56:13;94181.38;;;8.66;92.86
6435;BME280;3250;42.694;23.278;2023-11-21T17:58:39;94175.78;;;8.63;92.46
6435;BME280;3250;42.694;23.278;2023-11-21T18:01:04;94176.00;;;8.61;92.83
6435;BME280;3250;42.694;23.278;2023-11-21T18:03:30;94153.25;;;8.55;92.52
6435;BME280;3250;42.694;23.278;2023-11-21T18:05:55;94172.50;;;8.67;92.22
6435;BME280;3250;42.694;23.278;2023-11-21T18:08:20;94170.09;;;8.66;92.46
6435;BME280;3250;42.694;23.278;2023-11-21T18:10:46;94176.94;;;8.67;92.07
6435;BME280;3250;42.694;23.278;2023-11-21T18:13:12;94152.28;;;8.50;92.77
6435;BME280;3250;42.694;23.278;2023-11-21T18:15:38;94167.72;;;8.64;92.58
6435;BME280;3250;42.694;23.278;2023-11-21T18:18:04;94172.38;;;8.62;92.25
6435;BME280;3250;42.694;23.278;2023-11-21T18:20:30;94163.16;;;8.53;92.36
6435;BME280;3250;42.694;23.278;2023-11-21T18:22:55;94169.34;;;8.59;92.70
6435;BME280;3250;42.694;23.278;2023-11-21T18:25:21;94163.97;;;8.54;92.44
6435;BME280;3250;42.694;23.278;2023-11-21T18:27:46;94150.84;;;8.54;92.78
6435;BME280;3250;42.694;23.278;2023-11-21T18:30:12;94146.03;;;8.51;92.84
6435;BME280;3250;42.694;23.278;2023-11-21T18:32:39;94160.97;;;8.50;92.98
6435;BME280;3250;42.694;23.278;2023-11-21T18:35:05;94144.41;;;8.25;93.53
6435;BME280;3250;42.694;23.278;2023-11-21T18:37:30;94152.22;;;8.31;93.97
6435;BME280;3250;42.694;23.278;2023-11-21T18:39:56;94142.97;;;8.29;93.93
6435;BME280;3250;42.694;23.278;2023-11-21T18:42:22;94150.00;;;8.35;94.17
6435;BME280;3250;42.694;23.278;2023-11-21T18:44:49;94143.94;;;8.35;94.07
6435;BME280;3250;42.694;23.278;2023-11-21T18:47:14;94154.44;;;8.35;93.31
6435;BME280;3250;42.694;23.278;2023-11-21T18:49:44;94141.53;;;8.33;93.40
6435;BME280;3250;42.694;23.278;2023-11-21T18:52:10;94107.56;;;8.13;93.32
6435;BME280;3250;42.694;23.278;2023-11-21T18:54:41;94107.16;;;8.16;93.40
6435;BME280;3250;42.694;23.278;2023-11-21T18:57:10;94130.84;;;8.35;93.26
6435;BME280;3250;42.694;23.278;2023-11-21T18:59:36;94138.00;;;8.46;93.24
6435;BME280;3250;42.694;23.278;2023-11-21T19:02:03;94130.88;;;8.28;92.94